Upper Tygart, Kentucky
Current Conditions -  °F | °C
As of 11:30 AM on Monday 24 Nov 2014 (Local Time) from KSYM Reporting Station
Broken Clouds Broken Clouds  
Wind Chill: 64°   Ceiling: 6000
Heat Index: 64°   Visibility: 10mi
Dew Point: 45°   Wind: 28mph
Humidity: 49%   Direction: 240°WSW
Pressure: 29.55"   Gusts: 40mph
Location:  38.3543°N, 83.1837°W
Report Text: KSYM 241630Z AUTO 24024G35KT 10SM SCT050 BKN060 BKN075 18/07 A2955 RMK AO2
Loading
Personal Weather Stations






























Interactive Weather Map New forecast layout! Learn more

10-Day Weather Forecast

Advertisements
Track Severe Weather on mobile